createdAt,value
2019-02-27T06:51:53.633Z,21.29
2019-02-27T06:52:53.535Z,21.34
2019-02-27T06:54:53.500Z,21.22
2019-02-27T06:57:53.409Z,21.42
2019-02-27T06:58:53.386Z,21.43
2019-02-27T06:59:31.766Z,21.37
2019-02-27T07:00:35.804Z,21.34
2019-02-27T07:01:31.734Z,21.40
2019-02-27T07:02:31.710Z,21.46
2019-02-27T07:03:32.960Z,21.46
2019-02-27T07:09:50.574Z,8.84
2019-02-27T07:11:53.483Z,10.52
2019-02-27T07:12:54.711Z,11.62
2019-02-27T07:16:41.863Z,9.36
2019-02-27T07:17:41.829Z,9.97
2019-02-27T07:19:49.740Z,12.16
2019-02-27T07:20:48.441Z,13.19
2019-02-27T07:21:48.432Z,14.06
2019-02-27T07:22:48.425Z,14.86
2019-02-27T07:23:48.418Z,15.47
2019-02-27T07:24:48.412Z,16.20
2019-02-27T07:25:48.406Z,16.52
2019-02-27T07:26:50.271Z,16.98
2019-02-27T07:27:48.385Z,17.33
2019-02-27T07:28:48.379Z,17.59
2019-02-27T07:29:48.373Z,17.95
2019-02-27T07:30:48.364Z,18.21
2019-02-27T07:31:49.510Z,18.45
2019-02-27T07:32:48.377Z,18.52
2019-02-27T07:33:48.340Z,18.73
2019-02-27T07:34:49.771Z,18.88
2019-02-27T07:35:48.377Z,18.92
2019-02-27T07:36:48.320Z,19.13
2019-02-27T07:37:48.378Z,19.28
2019-02-27T07:38:48.301Z,19.37
2019-02-27T07:39:48.302Z,19.37
2019-02-27T07:40:48.284Z,19.54
2019-02-27T07:41:48.277Z,19.55
2019-02-27T07:42:48.270Z,19.66
2019-02-27T07:43:48.262Z,19.61
2019-02-27T07:44:48.266Z,19.71
2019-02-27T07:45:48.254Z,19.76
2019-02-27T07:46:48.241Z,19.77
2019-02-27T07:47:48.235Z,19.73
2019-02-27T07:48:48.224Z,19.78
2019-02-27T07:49:48.337Z,19.87
2019-02-27T07:50:49.085Z,19.91
2019-02-27T07:51:48.600Z,19.92
2019-02-27T07:52:48.197Z,19.94
2019-02-27T07:53:48.189Z,19.92
2019-02-27T07:54:48.191Z,20.01
2019-02-27T07:55:48.176Z,20.06
2019-02-27T07:56:48.168Z,20.08
2019-02-27T07:57:48.158Z,20.13
2019-02-27T07:58:48.155Z,20.05
2019-02-27T07:59:48.159Z,20.11
2019-02-27T08:00:49.820Z,20.11
2019-02-27T08:01:48.143Z,20.16
2019-02-27T08:02:48.122Z,20.18
2019-02-27T08:03:48.112Z,20.03
2019-02-27T08:04:48.105Z,20.21
2019-02-27T08:05:48.101Z,20.23
2019-02-27T08:06:48.091Z,20.17
2019-02-27T08:07:49.030Z,20.26
2019-02-27T08:08:48.084Z,20.18
2019-02-27T08:09:48.069Z,20.17
2019-02-27T08:10:48.066Z,20.20
2019-02-27T08:11:48.062Z,20.28
2019-02-27T08:12:48.052Z,20.23
2019-02-27T08:13:48.043Z,20.32
2019-02-27T08:14:48.032Z,20.28
2019-02-27T08:15:48.392Z,20.26
2019-02-27T08:16:48.213Z,20.32
2019-02-27T08:17:48.091Z,20.32
2019-02-27T08:18:48.006Z,20.29
2019-02-27T08:19:47.993Z,20.29
2019-02-27T08:20:48.160Z,20.41
2019-02-27T08:21:47.979Z,20.32
2019-02-27T08:22:48.242Z,20.28
2019-02-27T08:23:47.965Z,20.35
2019-02-27T08:24:47.958Z,20.32
2019-02-27T08:25:47.954Z,20.38
2019-02-27T08:26:49.123Z,20.36
2019-02-27T08:27:48.319Z,20.42
2019-02-27T08:28:47.930Z,20.36
2019-02-27T08:29:47.922Z,20.42
2019-02-27T08:30:47.915Z,20.38
2019-02-27T08:31:47.910Z,20.42
2019-02-27T08:32:47.899Z,20.43
2019-02-27T08:33:47.890Z,20.42
2019-02-27T08:34:47.893Z,20.43
2019-02-27T08:35:47.891Z,20.38
2019-02-27T08:36:47.867Z,20.43
2019-02-27T08:37:47.874Z,20.43
2019-02-27T08:38:47.853Z,20.42
2019-02-27T08:39:47.841Z,20.36
2019-02-27T08:40:47.851Z,20.38
2019-02-27T08:41:47.828Z,20.42
2019-02-27T08:42:47.817Z,20.39
2019-02-27T08:43:47.817Z,20.38
2019-02-27T08:44:47.807Z,20.42
2019-02-27T08:45:47.808Z,20.50
2019-02-27T08:46:47.797Z,20.38
2019-02-27T08:47:49.024Z,20.47
2019-02-27T08:48:50.107Z,20.39
2019-02-27T08:49:47.763Z,20.41
2019-02-27T08:50:47.766Z,20.43
2019-02-27T08:51:47.750Z,20.48
2019-02-27T08:52:50.861Z,20.43
2019-02-27T08:53:47.735Z,20.43
2019-02-27T08:54:47.728Z,20.47
2019-02-27T08:55:47.732Z,20.47
2019-02-27T08:56:47.958Z,20.43
2019-02-27T08:57:49.710Z,20.41
2019-02-27T08:58:47.697Z,20.39
2019-02-27T08:59:47.690Z,20.43
2019-02-27T09:00:48.094Z,20.41
2019-02-27T09:01:47.676Z,20.41
2019-02-27T09:02:47.669Z,20.41
2019-02-27T09:03:47.666Z,20.35
2019-02-27T09:04:47.654Z,20.35
2019-02-27T09:05:47.657Z,20.38
2019-02-27T09:06:47.638Z,20.43
2019-02-27T09:07:47.631Z,20.38
2019-02-27T09:08:47.619Z,20.47
2019-02-27T09:09:51.402Z,20.51
2019-02-27T09:10:47.614Z,20.43
2019-02-27T09:11:47.600Z,20.42
2019-02-27T09:12:48.791Z,20.38
2019-02-27T09:13:47.585Z,20.35
2019-02-27T09:14:47.582Z,20.31
2019-02-27T09:15:47.581Z,20.35
2019-02-27T09:16:47.560Z,20.29
2019-02-27T09:17:47.573Z,20.33
2019-02-27T09:18:47.541Z,20.33
2019-02-27T09:19:47.535Z,20.31
2019-02-27T09:20:47.527Z,20.33
2019-02-27T09:21:47.521Z,20.41
2019-02-27T09:22:47.626Z,20.50
2019-02-27T09:23:47.508Z,20.54
2019-02-27T09:24:47.497Z,20.52
2019-02-27T09:25:47.487Z,20.54
2019-02-27T09:26:47.490Z,20.61
2019-02-27T09:27:47.471Z,20.62
2019-02-27T09:28:47.466Z,20.69
2019-02-27T09:29:49.272Z,20.74
2019-02-27T09:30:47.449Z,20.70
2019-02-27T09:31:50.856Z,20.79
2019-02-27T09:32:47.431Z,20.79
2019-02-27T09:33:47.425Z,20.73
2019-02-27T09:34:47.415Z,20.76
2019-02-27T09:35:47.406Z,20.72
2019-02-27T09:36:49.121Z,20.67
2019-02-27T09:37:48.320Z,20.69
2019-02-27T09:38:47.388Z,20.73
2019-02-27T09:39:47.373Z,20.69
2019-02-27T09:40:47.366Z,20.70
2019-02-27T09:41:47.368Z,20.69
2019-02-27T09:42:50.180Z,20.69
2019-02-27T09:43:48.343Z,20.61
2019-02-27T09:44:47.334Z,20.64
2019-02-27T09:45:47.330Z,20.64
2019-02-27T09:46:49.926Z,20.67
2019-02-27T09:47:47.321Z,20.77
2019-02-27T09:48:47.299Z,20.67
2019-02-27T09:49:47.294Z,20.69
2019-02-27T09:50:48.362Z,20.70
2019-02-27T09:51:47.285Z,20.62
2019-02-27T09:52:47.272Z,20.62
2019-02-27T09:53:47.262Z,20.58
2019-02-27T09:54:47.610Z,20.59
2019-02-27T09:55:47.244Z,20.64
2019-02-27T09:56:47.248Z,20.59
2019-02-27T09:57:47.230Z,20.61
2019-02-27T09:58:47.221Z,20.59
2019-02-27T09:59:47.218Z,20.64
2019-02-27T10:00:47.211Z,20.64
2019-02-27T10:01:47.199Z,20.58
2019-02-27T10:02:47.206Z,20.59
2019-02-27T10:03:47.184Z,20.69
2019-02-27T10:04:47.179Z,20.62
2019-02-27T10:05:47.835Z,20.69
2019-02-27T10:06:47.163Z,20.66
2019-02-27T10:07:50.959Z,20.61
2019-02-27T10:08:47.144Z,20.66
2019-02-27T10:09:48.103Z,20.55
2019-02-27T10:10:47.129Z,20.64
2019-02-27T10:11:47.122Z,20.70
2019-02-27T10:12:47.123Z,20.70
2019-02-27T10:13:47.110Z,20.67
2019-02-27T10:14:47.955Z,20.73
2019-02-27T10:15:47.097Z,20.67
2019-02-27T10:16:47.086Z,20.70
2019-02-27T10:17:47.087Z,20.77
2019-02-27T10:18:47.069Z,20.77
2019-02-27T10:19:47.065Z,20.76
2019-02-27T10:20:47.052Z,20.79
2019-02-27T10:21:47.631Z,20.70
2019-02-27T10:22:47.049Z,20.74
2019-02-27T10:23:47.031Z,20.82
2019-02-27T10:24:47.023Z,20.70
2019-02-27T10:25:47.018Z,20.79
2019-02-27T10:26:47.054Z,20.72
2019-02-27T10:27:47.397Z,20.89
2019-02-27T10:28:46.993Z,20.70
2019-02-27T10:29:47.904Z,20.76
2019-02-27T10:30:50.111Z,20.77
2019-02-27T10:31:46.975Z,20.74
2019-02-27T10:32:46.974Z,20.80
2019-02-27T10:33:46.954Z,20.82
2019-02-27T10:34:46.947Z,20.76
2019-02-27T10:35:46.942Z,20.85
2019-02-27T10:36:47.703Z,20.77
2019-02-27T10:37:50.410Z,20.84
2019-02-27T10:38:46.930Z,20.85
2019-02-27T10:39:46.914Z,20.82
2019-02-27T10:40:46.900Z,20.79
2019-02-27T10:41:49.903Z,20.88
2019-02-27T10:42:46.884Z,20.85
2019-02-27T10:43:46.882Z,20.76
2019-02-27T10:44:46.870Z,20.79
2019-02-27T10:45:49.307Z,20.77
2019-02-27T10:46:46.856Z,20.80
2019-02-27T10:47:46.848Z,20.74
2019-02-27T10:48:47.532Z,20.85
2019-02-27T10:49:46.835Z,20.84
2019-02-27T10:50:46.872Z,20.82
2019-02-27T10:51:46.820Z,20.80
2019-02-27T10:52:46.817Z,20.88
2019-02-27T10:53:46.807Z,20.85
2019-02-27T10:54:46.797Z,20.85
2019-02-27T10:55:49.265Z,20.80
2019-02-27T10:56:46.782Z,20.89
2019-02-27T10:57:46.773Z,20.87
2019-02-27T10:58:47.541Z,20.94
2019-02-27T10:59:46.757Z,20.94
2019-02-27T11:00:46.752Z,20.88
2019-02-27T11:01:46.741Z,20.88
2019-02-27T11:02:47.895Z,20.91
2019-02-27T11:03:46.735Z,20.87
2019-02-27T11:04:46.731Z,20.97
2019-02-27T11:05:46.712Z,20.98
2019-02-27T11:06:46.705Z,21.03
2019-02-27T11:07:46.701Z,20.99
2019-02-27T11:08:46.701Z,21.03
2019-02-27T11:09:46.681Z,21.06
2019-02-27T11:10:46.675Z,21.13
2019-02-27T11:11:48.638Z,21.09
2019-02-27T11:12:46.658Z,21.09
2019-02-27T11:13:48.422Z,21.06
2019-02-27T11:14:46.642Z,21.13
2019-02-27T11:15:46.635Z,21.21
2019-02-27T11:16:46.631Z,21.19
2019-02-27T11:17:46.623Z,21.22
2019-02-27T11:18:46.635Z,21.24
2019-02-27T11:19:46.604Z,21.29
2019-02-27T11:20:46.597Z,21.34
2019-02-27T11:21:46.590Z,21.34
2019-02-27T11:22:46.581Z,21.27
2019-02-27T11:23:46.576Z,21.21
2019-02-27T11:24:49.270Z,21.24
2019-02-27T11:25:46.558Z,21.29
2019-02-27T11:26:46.552Z,21.35
2019-02-27T11:27:46.562Z,21.27
2019-02-27T11:28:47.711Z,21.21
2019-02-27T11:29:46.531Z,21.27
2019-02-27T11:30:46.527Z,21.29
2019-02-27T11:31:46.517Z,21.28
2019-02-27T11:32:46.505Z,21.32
2019-02-27T11:33:46.499Z,21.29
2019-02-27T11:34:48.439Z,21.38
2019-02-27T11:35:46.489Z,21.40
2019-02-27T11:36:46.476Z,21.38
2019-02-27T11:37:47.458Z,21.35
2019-02-27T11:38:46.459Z,21.35
2019-02-27T11:39:46.455Z,21.43
2019-02-27T11:40:46.449Z,21.42
2019-02-27T11:41:48.458Z,21.40
2019-02-27T11:42:46.426Z,21.49
2019-02-27T11:43:46.424Z,21.47
2019-02-27T11:44:49.406Z,21.46
2019-02-27T11:45:46.408Z,21.52
2019-02-27T11:46:46.397Z,21.42
2019-02-27T11:47:48.062Z,21.47
2019-02-27T11:48:46.381Z,21.54
2019-02-27T11:49:46.376Z,21.52
2019-02-27T11:50:46.368Z,21.49
2019-02-27T11:51:46.363Z,21.50
2019-02-27T11:52:49.073Z,21.50
2019-02-27T11:53:46.347Z,21.53
2019-02-27T11:54:46.357Z,21.52
2019-02-27T11:55:47.047Z,21.56
2019-02-27T11:56:46.321Z,21.52
2019-02-27T11:57:46.313Z,21.52
2019-02-27T11:58:46.302Z,21.58
2019-02-27T11:59:46.990Z,21.58
2019-02-27T12:00:46.293Z,21.46
2019-02-27T12:01:46.283Z,21.59
2019-02-27T12:02:46.274Z,21.64
2019-02-27T12:03:46.560Z,21.65
2019-02-27T12:04:46.260Z,21.62
2019-02-27T12:05:46.251Z,21.64
2019-02-27T12:06:46.240Z,21.58
2019-02-27T12:07:50.693Z,21.59
2019-02-27T12:08:46.226Z,21.65
2019-02-27T12:09:46.220Z,21.67
2019-02-27T12:10:46.215Z,21.53
2019-02-27T12:11:48.694Z,21.68
2019-02-27T12:12:46.195Z,21.61
2019-02-27T12:13:46.191Z,21.61
2019-02-27T12:14:46.181Z,21.67
2019-02-27T12:15:46.173Z,21.65
2019-02-27T12:16:48.626Z,21.62
2019-02-27T12:17:47.158Z,21.69
2019-02-27T12:18:46.148Z,21.65
2019-02-27T12:19:46.141Z,21.65
2019-02-27T12:20:46.136Z,21.67
2019-02-27T12:21:46.131Z,21.67
2019-02-27T12:22:46.118Z,21.79
2019-02-27T12:23:46.110Z,21.69
2019-02-27T12:24:46.103Z,21.64
2019-02-27T12:25:46.095Z,21.71
2019-02-27T12:26:46.089Z,21.69
2019-02-27T12:27:49.650Z,21.77
2019-02-27T12:28:47.495Z,21.74
2019-02-27T12:29:46.064Z,21.77
2019-02-27T12:30:46.063Z,21.82
2019-02-27T12:31:48.217Z,21.84
2019-02-27T12:32:46.040Z,21.75
2019-02-27T12:33:46.051Z,21.86
2019-02-27T12:34:46.030Z,21.77
2019-02-27T12:35:46.034Z,21.84
2019-02-27T12:36:46.015Z,21.77
2019-02-27T12:37:46.007Z,21.80
2019-02-27T12:38:45.991Z,21.75
2019-02-27T12:39:47.283Z,21.77
2019-02-27T12:40:45.982Z,21.80
2019-02-27T12:41:45.972Z,21.83
2019-02-27T12:42:45.984Z,21.75
2019-02-27T12:43:45.955Z,21.79
2019-02-27T12:44:45.945Z,21.82
2019-02-27T12:45:45.940Z,21.83
2019-02-27T12:46:45.934Z,21.83
2019-02-27T12:47:45.921Z,21.84
2019-02-27T12:48:46.405Z,21.80
2019-02-27T12:49:45.906Z,21.86
2019-02-27T12:50:45.897Z,21.84
2019-02-27T12:51:45.901Z,21.86
2019-02-27T12:52:47.924Z,21.83
2019-02-27T12:53:45.873Z,21.90
2019-02-27T12:54:45.864Z,21.84
2019-02-27T12:55:45.857Z,21.90
2019-02-27T12:56:45.850Z,21.86
2019-02-27T12:57:45.854Z,21.99
2019-02-27T12:58:45.831Z,21.98
2019-02-27T12:59:45.827Z,22.00
2019-02-27T13:00:45.816Z,22.03
2019-02-27T13:01:50.935Z,21.92
2019-02-27T13:02:46.802Z,21.94
2019-02-27T13:03:45.793Z,22.09
2019-02-27T13:04:45.782Z,21.96
2019-02-27T13:05:45.776Z,22.02
2019-02-27T13:06:45.773Z,22.03
2019-02-27T13:07:45.759Z,22.02
2019-02-27T13:08:45.751Z,22.00
2019-02-27T13:09:45.744Z,22.02
2019-02-27T13:10:45.751Z,22.07
2019-02-27T13:11:45.730Z,22.02
2019-02-27T13:12:45.721Z,22.12
2019-02-27T13:13:45.718Z,21.94
2019-02-27T13:14:45.705Z,21.96
2019-02-27T13:15:45.698Z,22.00
2019-02-27T13:16:46.393Z,22.05
2019-02-27T13:17:45.685Z,21.98
2019-02-27T13:18:46.522Z,21.99
2019-02-27T13:19:45.666Z,22.03
2019-02-27T13:20:46.291Z,22.02
2019-02-27T13:21:45.671Z,21.94
2019-02-27T13:22:45.648Z,21.98
2019-02-27T13:23:45.643Z,22.02
2019-02-27T13:24:47.049Z,22.05
2019-02-27T13:25:45.624Z,22.00
2019-02-27T13:26:45.612Z,22.02
2019-02-27T13:27:45.607Z,22.03
2019-02-27T13:28:45.984Z,22.03
2019-02-27T13:29:45.588Z,22.07
2019-02-27T13:30:45.580Z,22.05
2019-02-27T13:31:45.576Z,22.05
2019-02-27T13:32:45.572Z,22.12
2019-02-27T13:33:45.559Z,22.03
2019-02-27T13:34:48.263Z,22.09
2019-02-27T13:35:45.544Z,22.12
2019-02-27T13:36:45.539Z,22.09
2019-02-27T13:37:45.538Z,22.10
2019-02-27T13:38:45.520Z,22.12
2019-02-27T13:39:45.512Z,22.15
2019-02-27T13:40:45.503Z,22.14
2019-02-27T13:41:45.797Z,22.15
2019-02-27T13:42:45.488Z,22.15
2019-02-27T13:43:45.480Z,22.18
2019-02-27T13:44:45.470Z,22.18
2019-02-27T13:45:47.563Z,22.17
2019-02-27T13:46:45.454Z,22.17
2019-02-27T13:47:45.450Z,22.21
2019-02-27T13:48:45.438Z,22.20
2019-02-27T13:49:47.322Z,22.15
2019-02-27T13:50:45.424Z,22.22
2019-02-27T13:51:45.418Z,22.27
2019-02-27T13:52:49.906Z,22.22
2019-02-27T13:53:46.399Z,22.25
2019-02-27T13:54:45.389Z,22.17
2019-02-27T13:55:48.162Z,22.20
2019-02-27T13:56:45.370Z,22.22
2019-02-27T13:57:45.364Z,22.28
2019-02-27T13:58:45.358Z,22.27
2019-02-27T13:59:45.679Z,22.25
2019-02-27T14:00:45.343Z,22.24
2019-02-27T14:01:45.333Z,22.30
2019-02-27T14:02:45.336Z,22.22
2019-02-27T14:03:45.682Z,22.31
2019-02-27T14:04:45.312Z,22.25
2019-02-27T14:05:45.301Z,22.28
2019-02-27T14:06:47.394Z,22.31
2019-02-27T14:07:45.310Z,22.30
2019-02-27T14:08:45.285Z,22.28
2019-02-27T14:09:45.273Z,22.28
2019-02-27T14:10:45.263Z,22.28
2019-02-27T14:11:45.258Z,22.31
2019-02-27T14:12:45.249Z,22.33
2019-02-27T14:13:45.245Z,22.31
2019-02-27T14:14:45.233Z,22.36
2019-02-27T14:15:45.226Z,22.27
2019-02-27T14:16:45.219Z,22.37
2019-02-27T14:17:45.211Z,22.37
2019-02-27T14:18:49.810Z,22.37
2019-02-27T14:19:46.197Z,22.25
2019-02-27T14:20:45.193Z,22.25
2019-02-27T14:21:45.209Z,22.33
2019-02-27T14:22:45.287Z,22.28
2019-02-27T14:23:46.916Z,22.30
2019-02-27T14:24:45.161Z,22.30
2019-02-27T14:25:45.151Z,22.35
2019-02-27T14:26:45.143Z,22.37
2019-02-27T14:27:47.475Z,22.37
2019-02-27T14:28:45.132Z,22.31
2019-02-27T14:29:45.122Z,22.36
2019-02-27T14:30:45.114Z,22.25
2019-02-27T14:31:45.107Z,22.30
2019-02-27T14:32:47.340Z,22.36
2019-02-27T14:33:45.090Z,22.25
2019-02-27T14:34:45.082Z,22.42
2019-02-27T14:35:45.073Z,22.27
2019-02-27T14:36:45.066Z,22.35
2019-02-27T14:37:49.646Z,22.36
2019-02-27T14:38:45.047Z,22.39
2019-02-27T14:39:45.040Z,22.33
2019-02-27T14:40:45.040Z,22.43
2019-02-27T14:41:47.910Z,22.36
2019-02-27T14:42:45.016Z,22.40
2019-02-27T14:43:45.023Z,22.36
2019-02-27T14:44:45.009Z,22.37
2019-02-27T14:45:44.995Z,22.35
2019-02-27T14:46:45.677Z,22.39
2019-02-27T14:47:47.382Z,22.31
2019-02-27T14:48:44.987Z,22.33
2019-02-27T14:49:44.965Z,22.39
2019-02-27T14:50:44.956Z,22.37
2019-02-27T14:51:44.951Z,22.39
2019-02-27T14:52:45.729Z,22.43
2019-02-27T14:53:44.944Z,22.40
2019-02-27T14:54:44.929Z,22.40
2019-02-27T14:55:44.918Z,22.37
2019-02-27T14:56:44.917Z,22.36
2019-02-27T14:57:50.096Z,22.35
2019-02-27T14:58:45.913Z,22.43
2019-02-27T14:59:44.891Z,22.42
2019-02-27T15:00:44.880Z,22.40
2019-02-27T15:01:48.392Z,22.54
2019-02-27T15:02:44.862Z,22.33
2019-02-27T15:03:44.856Z,22.43
2019-02-27T15:04:44.848Z,22.33
2019-02-27T15:05:45.315Z,22.40
2019-02-27T15:06:44.829Z,22.35
2019-02-27T15:07:44.824Z,22.39
2019-02-27T15:08:44.815Z,22.37
2019-02-27T15:09:47.975Z,22.35
2019-02-27T15:10:44.799Z,22.31
2019-02-27T15:11:44.949Z,22.39
2019-02-27T15:12:44.785Z,22.40
2019-02-27T15:13:44.782Z,22.42
2019-02-27T15:14:44.785Z,22.36
2019-02-27T15:15:44.765Z,22.36
2019-02-27T15:16:49.061Z,22.33
2019-02-27T15:17:45.745Z,22.30
2019-02-27T15:18:44.739Z,22.30
2019-02-27T15:19:44.740Z,22.37
2019-02-27T15:20:44.724Z,22.37
2019-02-27T15:21:46.554Z,22.36
2019-02-27T15:22:44.709Z,22.43
2019-02-27T15:23:44.698Z,22.43
2019-02-27T15:24:44.700Z,22.40
2019-02-27T15:25:44.683Z,22.40
2019-02-27T15:26:45.453Z,22.36
2019-02-27T15:27:44.665Z,22.40
2019-02-27T15:28:44.659Z,22.40
2019-02-27T15:29:44.780Z,22.31
2019-02-27T15:30:46.638Z,22.39
2019-02-27T15:31:44.635Z,22.39
2019-02-27T15:32:44.628Z,22.40
2019-02-27T15:33:44.620Z,22.36
2019-02-27T15:34:45.953Z,22.37
2019-02-27T15:35:44.610Z,22.45
2019-02-27T15:36:44.597Z,22.39
2019-02-27T15:37:44.599Z,22.40
2019-02-27T15:38:46.078Z,22.37
2019-02-27T15:39:44.572Z,22.31
2019-02-27T15:40:44.576Z,22.39
2019-02-27T15:41:44.558Z,22.54
2019-02-27T15:42:44.549Z,22.43
2019-02-27T15:43:44.545Z,22.42
2019-02-27T15:44:44.532Z,22.46
2019-02-27T15:45:48.022Z,22.37
2019-02-27T15:46:44.519Z,22.45
2019-02-27T15:47:44.532Z,22.42
2019-02-27T15:48:44.504Z,22.42
2019-02-27T15:49:46.106Z,22.46
2019-02-27T15:50:44.497Z,22.39
2019-02-27T15:51:44.485Z,22.40
2019-02-27T15:52:44.477Z,22.31
2019-02-27T15:53:49.613Z,22.36
2019-02-27T15:54:45.457Z,22.40
2019-02-27T15:55:44.463Z,22.46
2019-02-27T15:56:45.518Z,22.43
2019-02-27T15:57:44.440Z,22.49
2019-02-27T15:58:44.431Z,22.51
2019-02-27T15:59:44.419Z,22.43
2019-02-27T16:00:44.424Z,22.46
2019-02-27T16:01:44.415Z,22.42
2019-02-27T16:02:44.399Z,22.36
2019-02-27T16:03:45.574Z,22.46
2019-02-27T16:04:44.384Z,22.49
2019-02-27T16:05:44.400Z,22.54
2019-02-27T16:06:44.368Z,22.47
2019-02-27T16:07:48.537Z,22.40
2019-02-27T16:08:44.352Z,22.43
2019-02-27T16:09:46.137Z,22.43
2019-02-27T16:10:54.374Z,22.31
2019-02-27T16:11:48.066Z,22.49
2019-02-27T16:12:45.319Z,22.30
2019-02-27T16:13:44.318Z,22.39
2019-02-27T16:14:44.306Z,22.43
2019-02-27T16:15:44.781Z,22.30
2019-02-27T16:16:44.295Z,22.31
2019-02-27T16:17:44.284Z,22.33
2019-02-27T16:18:44.277Z,22.36
2019-02-27T16:19:44.719Z,22.42
2019-02-27T16:20:47.033Z,22.31
2019-02-27T16:21:45.264Z,22.35
2019-02-27T16:22:44.248Z,22.25
2019-02-27T16:23:44.238Z,22.37
2019-02-27T16:24:44.230Z,22.31
2019-02-27T16:25:44.227Z,22.28
2019-02-27T16:26:44.222Z,22.25
2019-02-27T16:27:44.207Z,22.21
2019-02-27T16:28:46.143Z,22.28
2019-02-27T16:29:44.193Z,22.27
2019-02-27T16:30:44.184Z,22.27
2019-02-27T16:31:44.183Z,22.25
2019-02-27T16:32:48.059Z,22.22
2019-02-27T16:33:45.159Z,22.21
2019-02-27T16:34:44.151Z,22.20
2019-02-27T16:35:46.319Z,22.17
2019-02-27T16:36:46.876Z,22.18
2019-02-27T16:37:44.129Z,22.15
2019-02-27T16:38:44.123Z,22.20
2019-02-27T16:39:45.746Z,22.22
2019-02-27T16:40:44.103Z,22.18
2019-02-27T16:41:45.098Z,22.18
2019-02-27T16:42:44.099Z,22.14
2019-02-27T16:43:47.744Z,22.09
2019-02-27T16:44:44.077Z,22.09
2019-02-27T16:45:44.067Z,22.12
2019-02-27T16:46:44.934Z,22.14
2019-02-27T16:47:44.053Z,22.12
2019-02-27T16:48:44.053Z,22.14
2019-02-27T16:49:44.038Z,22.06
2019-02-27T16:50:45.576Z,22.10
2019-02-27T16:51:44.020Z,22.02
2019-02-27T16:52:44.047Z,22.07
2019-02-27T16:53:44.014Z,22.05
2019-02-27T16:54:44.001Z,22.06
2019-02-27T16:55:43.990Z,22.06
2019-02-27T16:56:47.647Z,22.02
2019-02-27T16:57:44.996Z,22.03
2019-02-27T16:58:43.971Z,22.02
2019-02-27T16:59:45.433Z,21.96
2019-02-27T17:00:43.957Z,22.02
2019-02-27T17:01:43.944Z,22.06
2019-02-27T17:02:43.937Z,21.94
2019-02-27T17:03:45.173Z,21.94
2019-02-27T17:04:44.919Z,22.02
2019-02-27T17:05:44.002Z,21.96
2019-02-27T17:06:43.909Z,21.88
2019-02-27T17:07:43.902Z,21.84
2019-02-27T17:08:43.895Z,21.83
2019-02-27T17:09:44.647Z,21.80
2019-02-27T17:10:43.878Z,21.82
2019-02-27T17:11:43.871Z,21.69
2019-02-27T17:12:43.864Z,21.75
2019-02-27T17:13:43.859Z,21.77
2019-02-27T17:14:44.753Z,21.80
2019-02-27T17:15:43.844Z,21.83
2019-02-27T17:16:44.930Z,21.77
2019-02-27T17:17:43.827Z,21.77
2019-02-27T17:18:43.825Z,21.74
2019-02-27T17:19:43.813Z,21.74
2019-02-27T17:20:46.605Z,21.75
2019-02-27T17:21:43.797Z,21.80
2019-02-27T17:22:43.789Z,21.74
2019-02-27T17:23:46.593Z,21.74
2019-02-27T17:24:43.772Z,21.72
2019-02-27T17:25:43.765Z,21.74
2019-02-27T17:26:43.802Z,21.79
2019-02-27T17:27:43.754Z,21.86
2019-02-27T17:28:43.742Z,21.67
2019-02-27T17:29:43.735Z,21.74
2019-02-27T17:30:43.732Z,21.69
2019-02-27T17:31:49.278Z,21.72
2019-02-27T17:32:44.711Z,21.68
2019-02-27T17:33:43.707Z,21.77
2019-02-27T17:34:47.231Z,21.71
2019-02-27T17:35:43.701Z,21.67
2019-02-27T17:36:43.678Z,21.72
2019-02-27T17:37:43.673Z,21.65
2019-02-27T17:38:45.249Z,21.67
2019-02-27T17:39:45.470Z,21.67
2019-02-27T17:40:43.647Z,21.68
2019-02-27T17:41:44.691Z,21.68
2019-02-27T17:42:43.634Z,21.59
2019-02-27T17:43:43.634Z,21.65
2019-02-27T17:44:43.614Z,21.61
2019-02-27T17:45:44.274Z,21.61
2019-02-27T17:46:43.598Z,21.59
2019-02-27T17:47:43.589Z,21.65
2019-02-27T17:48:45.949Z,21.58
2019-02-27T17:49:43.577Z,21.54
2019-02-27T17:50:43.568Z,21.61
2019-02-27T17:51:43.565Z,21.56
2019-02-27T17:52:48.552Z,21.65
2019-02-27T17:53:44.587Z,21.58
2019-02-27T17:54:43.538Z,21.53
2019-02-27T17:55:43.527Z,21.52
2019-02-27T17:56:43.517Z,21.61
2019-02-27T17:57:43.523Z,21.47
2019-02-27T17:58:43.504Z,21.52
2019-02-27T17:59:43.498Z,21.49
2019-02-27T18:00:43.490Z,21.53
2019-02-27T18:01:43.482Z,21.56
2019-02-27T18:02:43.479Z,21.50
2019-02-27T18:03:43.466Z,21.50
2019-02-27T18:04:45.300Z,21.49
2019-02-27T18:05:44.448Z,21.52
2019-02-27T18:06:43.444Z,21.53
2019-02-27T18:07:43.511Z,21.54
2019-02-27T18:08:43.427Z,21.50
2019-02-27T18:09:43.423Z,21.50
2019-02-27T18:10:43.414Z,21.54
2019-02-27T18:11:43.408Z,21.50
2019-02-27T18:12:43.402Z,21.59
2019-02-27T18:13:43.390Z,21.49
2019-02-27T18:14:46.723Z,21.50
2019-02-27T18:15:43.374Z,21.50
2019-02-27T18:16:43.367Z,21.52
2019-02-27T18:17:43.363Z,21.54
2019-02-27T18:18:44.015Z,21.53
2019-02-27T18:19:43.345Z,21.43
2019-02-27T18:20:43.344Z,21.50
2019-02-27T18:21:43.331Z,21.49
2019-02-27T18:22:45.886Z,21.52
2019-02-27T18:23:44.325Z,21.44
2019-02-27T18:24:43.326Z,21.38
2019-02-27T18:25:43.301Z,21.32
2019-02-27T18:26:43.291Z,21.44
2019-02-27T18:27:43.292Z,21.31
2019-02-27T18:28:43.276Z,21.47
2019-02-27T18:29:43.710Z,21.38
2019-02-27T18:30:43.264Z,21.42
2019-02-27T18:31:43.255Z,21.43
2019-02-27T18:32:43.247Z,21.42
2019-02-27T18:33:43.241Z,21.44
2019-02-27T18:34:43.232Z,21.42
2019-02-27T18:35:43.229Z,21.44
2019-02-27T18:36:46.480Z,21.38
2019-02-27T18:37:43.209Z,21.37
2019-02-27T18:38:43.205Z,21.40
2019-02-27T18:39:43.196Z,21.37
2019-02-27T18:40:43.639Z,21.38
2019-02-27T18:41:45.757Z,21.49
2019-02-27T18:42:43.171Z,21.37
2019-02-27T18:43:43.165Z,21.42
2019-02-27T18:44:43.162Z,21.46
2019-02-27T18:45:43.148Z,21.42
2019-02-27T18:46:43.139Z,21.34
2019-02-27T18:47:43.134Z,21.38
2019-02-27T18:48:43.861Z,21.34
2019-02-27T18:49:43.116Z,21.43
2019-02-27T18:50:43.112Z,21.38
2019-02-27T18:51:43.100Z,21.43
2019-02-27T18:52:43.093Z,21.43
2019-02-27T18:53:47.352Z,21.42
2019-02-27T18:54:44.079Z,21.40
2019-02-27T18:55:44.074Z,21.34
2019-02-27T18:56:43.103Z,21.42
2019-02-27T18:57:45.992Z,21.35
2019-02-27T18:58:43.050Z,21.40
2019-02-27T18:59:43.043Z,21.46
2019-02-27T19:00:43.034Z,21.32
2019-02-27T19:01:45.208Z,21.32
2019-02-27T19:02:43.019Z,21.37
2019-02-27T19:03:43.014Z,21.34
2019-02-27T19:04:43.002Z,21.28
2019-02-27T19:05:43.003Z,21.32
2019-02-27T19:06:43.127Z,21.40
2019-02-27T19:07:42.981Z,21.34
2019-02-27T19:08:42.976Z,21.32
2019-02-27T19:09:42.970Z,21.35
2019-02-27T19:10:42.968Z,21.34
2019-02-27T19:11:42.951Z,21.31
2019-02-27T19:12:42.945Z,21.32
2019-02-27T19:13:42.942Z,21.28
2019-02-27T19:14:42.935Z,21.24
2019-02-27T19:15:46.296Z,21.27
2019-02-27T19:16:42.914Z,21.21
2019-02-27T19:17:42.907Z,21.31
2019-02-27T19:18:42.900Z,21.19
2019-02-27T19:19:42.893Z,21.22
2019-02-27T19:20:42.887Z,21.31
2019-02-27T19:21:42.879Z,21.34
2019-02-27T19:22:43.837Z,21.31
2019-02-27T19:23:42.867Z,21.31
2019-02-27T19:24:42.860Z,21.31
2019-02-27T19:25:42.855Z,21.28
2019-02-27T19:26:44.355Z,21.34
2019-02-27T19:27:42.832Z,21.25
2019-02-27T19:28:42.826Z,21.28
2019-02-27T19:29:42.817Z,21.28
2019-02-27T19:30:42.820Z,21.28
2019-02-27T19:31:42.805Z,21.21
2019-02-27T19:32:42.801Z,21.29
2019-02-27T19:33:42.787Z,21.19
2019-02-27T19:34:44.727Z,21.16
2019-02-27T19:35:42.804Z,21.19
2019-02-27T19:36:42.766Z,21.28
2019-02-27T19:37:42.756Z,21.19
2019-02-27T19:38:44.192Z,21.22
2019-02-27T19:39:42.743Z,21.24
2019-02-27T19:40:42.750Z,21.17
2019-02-27T19:41:42.726Z,21.19
2019-02-27T19:42:44.452Z,21.16
2019-02-27T19:43:42.709Z,21.22
2019-02-27T19:44:42.704Z,21.27
2019-02-27T19:45:42.695Z,21.27
2019-02-27T19:46:47.510Z,21.24
2019-02-27T19:47:43.675Z,21.19
2019-02-27T19:48:42.667Z,21.28
2019-02-27T19:49:42.662Z,21.24
2019-02-27T19:50:46.266Z,21.25
2019-02-27T19:51:42.648Z,21.27
2019-02-27T19:52:42.640Z,21.14
2019-02-27T19:53:42.821Z,21.29
2019-02-27T19:54:42.621Z,21.24
2019-02-27T19:55:42.615Z,21.24
2019-02-27T19:56:42.613Z,21.21